Airport View

Enter AWOS ICAO identifier for current METAR.

ex. KFNL

KD60 300405Z AUTO 00000KT M1/4SM FG OVC002 02/02 A3003 RMK AO2

30 Oct 2020 04:09

Frequency: 118.575

Phone: 701-664-4490

Other Area AWOS: K08D - KISN - KD50 - KS25